This demonstration page uses our WeatherBlox Daily Observations layout. Learn more.

Hourly Observations for June 16, 2017

Temp ( °F °C ) Dew Point ( °F °C ) Humidity (%) Winds ( mph kmh ) Pressure ( in mb ) Visibility ( mi km ) Precip ( " mm )
12:54 am 00:54 Clear 74 23.3 64 17.8 71 71 Calm 29.78 1008 10 16.0934 0 0
1:54 am 01:54 Clear 70 21.1 63 17.2 79 79 S 9 15 29.8 1009 10 16.0934 0 0
2:54 am 02:54 undefined N/A N/A N/A undefined N/A N/A N/A 0 0
3:54 am 03:54 undefined N/A N/A N/A undefined N/A N/A N/A 0 0
4:54 am 04:54 undefined N/A N/A N/A undefined N/A N/A N/A 0 0
5:54 am 05:54 undefined N/A N/A N/A undefined N/A N/A N/A 0 0
6:54 am 06:54 Mostly Sunny N/A N/A N/A undefined N/A N/A N/A 0 0
7:54 am 07:54 Mostly Sunny N/A N/A N/A undefined N/A N/A N/A 0 0
8:54 am 08:54 Mostly Sunny N/A N/A N/A undefined N/A N/A N/A 0 0
8:55 am 08:55 Sunny 72 22 61 16 69 69 S 8 13 29.74 1007 10 16.0934 0 0
9:54 am 09:54 Mostly Sunny N/A N/A N/A undefined N/A N/A N/A 0 0
10:54 am 10:54 Mostly Sunny N/A N/A N/A undefined N/A N/A N/A 0 0
10:55 am 10:55 Sunny 81 27 64 18 58 58 SW 6 9 29.71 1006 10 16.0934 0 0
11:54 am 11:54 Sunny 85 29.4 68 20 57 57 S 8 13 29.71 1006 10 16.0934 0 0
12:54 pm 12:54 Sunny 85 29.4 69 20.6 59 59 S 10 17 29.69 1005 10 16.0934 0 0
1:54 pm 13:54 Sunny 88 31.1 71 21.7 57 57 SSE 13 20 29.66 1005 10 16.0934 0 0
2:54 pm 14:54 Mostly Sunny N/A N/A N/A undefined N/A N/A N/A 0 0
3:54 pm 15:54 Sunny 91 32.8 71 21.7 52 52 SSW 12 19 29.56 1001 10 16.0934 0 0
4:54 pm 16:54 Sunny 91 32.8 71 21.7 52 52 S 14 22 29.53 1000 10 16.0934 0 0
5:54 pm 17:54 Sunny 90 32.2 72 22.2 56 56 S 14 22 29.5 999 10 16.0934 0 0
6:54 pm 18:54 Sunny 86 30 71 21.7 61 61 S 10 17 29.47 998 10 16.0934 0 0
7:04 pm 19:04 Sunny with Thunderstorms 87 30.6 71 21.7 59 59 S 10 17 29.47 998 10 16.0934 0 0
7:23 pm 19:23 Sunny 86 30 71 21.7 61 61 S 15 24 29.44 997 10 16.0934 0 0
7:37 pm 19:37 Sunny with Thunderstorms 87 30.6 70 21.1 57 57 S 14 22 29.41 996 10 16.0934 0 0
7:54 pm 19:54 Sunny with Thunderstorms 87 30.6 70 21.1 57 57 S 15 24 29.47 998 10 16.0934 0 0
8:33 pm 20:33 Mostly Cloudy with Thunderstorms 76 24.4 71 21.7 85 85 undefined N/A N/A 1.75 2.816345 0.06 1.524
8:37 pm 20:37 Cloudy with Heavy Thunderstorms 71 21.7 68 20 90 90 NNW 63 102 N/A 0.5 0.80467 0.07 1.778
8:43 pm 20:43 Cloudy with Heavy Thunderstorms 69 20.6 66 18.9 90 90 NE 38 61 N/A 0.25 0.402335 0.32 8.128
8:50 pm 20:50 Cloudy with Thunderstorms 68 20 66 19 94 94 ENE 23 37 N/A 4 6.43736 0.72 18.288
8:54 pm 20:54 Cloudy with Light Thunderstorms 69 20.6 67 19.4 93 93 E 15 24 N/A 4 6.43736 0.73 18.542
9:01 pm 21:01 Mostly Cloudy with Light Thunderstorms 74 23.3 66 18.9 76 76 ESE 12 19 N/A 10 16.0934 0.01 0.254
9:33 pm 21:33 Clear with Thunderstorms 71 21.7 68 20 90 90 SSE 7 11 N/A 10 16.0934 0.01 0.254
9:50 pm 21:50 Clear 72 22 68 20 88 88 SSE 7 11 N/A 10 16.0934 0.01 0.254
9:54 pm 21:54 Clear 72 22.2 68 20 87 87 ENE 5 7 N/A 10 16.0934 0.01 0.254
10:54 pm 22:54 Clear 73 22.8 69 20.6 87 87 Calm N/A 10 16.0934 0 0
11:54 pm 23:54 Clear 72 22.2 69 20.6 91 91 ESE 8 13 N/A 10 16.0934 0 0

Powered by AerisWeather